createdAt,value
2023-04-01T00:01:18.595Z,16.10
2023-04-01T00:03:46.385Z,19.37
2023-04-01T00:06:19.065Z,21.33
2023-04-01T00:08:47.291Z,14.43
2023-04-01T00:11:15.983Z,14.03
2023-04-01T00:13:43.703Z,17.07
2023-04-01T00:16:21.129Z,16.10
2023-04-01T00:18:51.487Z,19.67
2023-04-01T00:21:19.966Z,12.23
2023-04-01T00:23:47.250Z,16.57
2023-04-01T00:26:15.539Z,17.40
2023-04-01T00:28:42.710Z,17.73
2023-04-01T00:31:11.328Z,20.40
2023-04-01T00:33:41.697Z,19.73
2023-04-01T00:36:18.528Z,14.53
2023-04-01T00:38:46.806Z,19.40
2023-04-01T00:41:16.929Z,21.87
2023-04-01T00:43:48.904Z,23.77
2023-04-01T00:46:16.565Z,21.43
2023-04-01T00:48:55.747Z,17.87
2023-04-01T00:51:29.798Z,23.70
2023-04-01T00:53:59.992Z,14.00
2023-04-01T00:56:42.426Z,26.70
2023-04-01T00:59:17.019Z,22.47
2023-04-01T01:01:44.090Z,21.23
2023-04-01T01:04:29.859Z,26.47
2023-04-01T01:07:41.435Z,23.67
2023-04-01T01:10:23.350Z,21.80
2023-04-01T01:13:57.772Z,24.90
2023-04-01T01:16:35.145Z,22.90
2023-04-01T01:19:49.067Z,27.07
2023-04-01T01:23:00.648Z,20.83
2023-04-01T01:26:07.937Z,23.03
2023-04-01T01:29:02.391Z,23.63
2023-04-01T01:31:43.899Z,23.67
2023-04-01T01:34:48.011Z,27.80
2023-04-01T01:37:22.015Z,26.80
2023-04-01T01:40:02.636Z,33.27
2023-04-01T01:42:32.328Z,29.13
2023-04-01T01:45:01.526Z,20.87
2023-04-01T01:47:30.549Z,21.70
2023-04-01T01:49:59.011Z,24.43
2023-04-01T01:52:29.312Z,16.80
2023-04-01T01:54:59.145Z,31.90
2023-04-01T01:57:38.973Z,28.47
2023-04-01T02:00:15.981Z,25.07
2023-04-01T02:02:48.598Z,21.90
2023-04-01T02:05:26.971Z,25.17
2023-04-01T02:08:31.314Z,23.30
2023-04-01T02:11:08.670Z,29.37
2023-04-01T02:14:04.327Z,26.23
2023-04-01T02:17:09.093Z,23.40
2023-04-01T02:19:46.940Z,21.17
2023-04-01T02:22:25.265Z,28.03
2023-04-01T02:24:59.500Z,22.50
2023-04-01T02:27:26.992Z,23.17
2023-04-01T02:29:54.504Z,24.40
2023-04-01T02:32:22.236Z,24.63
2023-04-01T02:34:50.358Z,23.63
2023-04-01T02:37:18.307Z,24.23
2023-04-01T02:39:45.573Z,33.50
2023-04-01T02:42:12.706Z,25.13
2023-04-01T02:44:39.815Z,22.47
2023-04-01T02:47:07.052Z,38.77
2023-04-01T02:49:34.127Z,23.50
2023-04-01T02:52:01.193Z,36.20
2023-04-01T02:54:28.243Z,18.87
2023-04-01T02:56:55.368Z,22.07
2023-04-01T02:59:22.485Z,30.30
2023-04-01T03:01:52.474Z,30.50
2023-04-01T03:04:19.526Z,30.23
2023-04-01T03:06:46.692Z,27.23
2023-04-01T03:09:13.884Z,23.80
2023-04-01T03:11:41.798Z,20.60
2023-04-01T03:14:08.885Z,24.87
2023-04-01T03:16:36.235Z,17.83
2023-04-01T03:19:03.404Z,22.70
2023-04-01T03:21:30.904Z,19.77
2023-04-01T03:23:58.138Z,24.03
2023-04-01T03:26:27.596Z,21.70
2023-04-01T03:28:55.926Z,20.43
2023-04-01T03:31:23.936Z,21.40
2023-04-01T03:33:51.538Z,23.13
2023-04-01T03:36:19.284Z,23.47
2023-04-01T03:38:46.506Z,22.23
2023-04-01T03:41:18.423Z,25.70
2023-04-01T03:43:46.349Z,23.40
2023-04-01T03:46:19.520Z,20.67
2023-04-01T03:48:47.104Z,24.60
2023-04-01T03:51:14.502Z,27.20
2023-04-01T03:53:41.529Z,30.73
2023-04-01T03:56:10.071Z,23.77
2023-04-01T03:58:37.558Z,20.30
2023-04-01T04:01:13.616Z,26.67
2023-04-01T04:03:40.819Z,21.93
2023-04-01T04:06:13.800Z,27.63
2023-04-01T04:08:41.131Z,27.60
2023-04-01T04:11:08.991Z,29.17
2023-04-01T04:13:36.943Z,37.57
2023-04-01T04:16:05.261Z,44.17
2023-04-01T04:18:32.428Z,42.47
2023-04-01T04:20:59.531Z,45.10
2023-04-01T04:23:26.767Z,40.43
2023-04-01T04:26:08.069Z,45.60
2023-04-01T04:28:35.617Z,33.10
2023-04-01T04:31:05.773Z,27.10
2023-04-01T04:33:33.938Z,46.23
2023-04-01T04:36:02.589Z,47.57
2023-04-01T04:38:30.310Z,41.37
2023-04-01T04:40:57.626Z,24.70
2023-04-01T04:43:24.840Z,36.30
2023-04-01T04:45:52.761Z,35.40
2023-04-01T04:48:21.122Z,31.83
2023-04-01T04:50:50.843Z,25.70
2023-04-01T04:53:19.845Z,30.37
2023-04-01T04:55:50.628Z,31.73
2023-04-01T04:58:19.329Z,32.87
2023-04-01T05:00:46.946Z,23.00
2023-04-01T05:03:15.792Z,23.80
2023-04-01T05:05:52.859Z,31.93
2023-04-01T05:08:20.651Z,35.47
2023-04-01T05:10:48.121Z,35.30
2023-04-01T05:13:15.469Z,33.73
2023-04-01T05:15:42.553Z,36.57
2023-04-01T05:18:09.700Z,43.63
2023-04-01T05:20:37.017Z,34.97
2023-04-01T05:23:04.560Z,50.80
2023-04-01T05:25:31.811Z,23.43
2023-04-01T05:27:59.065Z,23.87
2023-04-01T05:30:28.988Z,21.23
2023-04-01T05:32:56.123Z,34.57
2023-04-01T05:35:24.112Z,28.03
2023-04-01T05:37:53.552Z,43.40
2023-04-01T05:40:21.429Z,25.23
2023-04-01T05:42:48.742Z,40.73
2023-04-01T05:45:16.778Z,38.57
2023-04-01T05:47:43.958Z,39.80
2023-04-01T05:50:11.911Z,28.30
2023-04-01T05:52:39.904Z,17.03
2023-04-01T05:55:07.829Z,19.07
2023-04-01T05:57:35.734Z,20.80
2023-04-01T06:00:06.168Z,36.00
2023-04-01T06:02:33.327Z,38.40
2023-04-01T06:05:26.314Z,43.93
2023-04-01T06:08:02.107Z,41.37
2023-04-01T06:11:26.507Z,40.27
2023-04-01T06:14:38.205Z,47.70
2023-04-01T06:17:17.197Z,38.27
2023-04-01T06:20:33.546Z,34.37
2023-04-01T06:23:24.421Z,26.33
2023-04-01T06:26:31.796Z,39.57
2023-04-01T06:29:44.001Z,34.37
2023-04-01T06:32:51.505Z,39.73
2023-04-01T06:36:16.423Z,35.27
2023-04-01T06:39:35.826Z,31.77
2023-04-01T06:42:50.598Z,23.67
2023-04-01T06:45:57.935Z,34.17
2023-04-01T06:48:56.564Z,34.53
2023-04-01T06:52:02.953Z,35.97
2023-04-01T06:54:45.256Z,33.20
2023-04-01T06:57:47.579Z,16.53
2023-04-01T07:00:40.006Z,19.57
2023-04-01T07:03:34.077Z,15.37
2023-04-01T07:06:13.261Z,13.80
2023-04-01T07:08:45.005Z,16.40
2023-04-01T07:11:36.669Z,16.53
2023-04-01T07:14:26.812Z,14.40
2023-04-01T07:17:16.786Z,17.20
2023-04-01T07:20:02.058Z,17.37
2023-04-01T07:22:52.605Z,16.83
2023-04-01T07:25:37.774Z,14.03
2023-04-01T07:28:17.747Z,18.77
2023-04-01T07:31:28.957Z,13.67
2023-04-01T07:34:42.910Z,15.30
2023-04-01T07:38:15.860Z,18.20
2023-04-01T07:41:28.568Z,17.57
2023-04-01T07:44:04.003Z,18.13
2023-04-01T07:47:23.742Z,21.37
2023-04-01T07:50:15.383Z,18.57
2023-04-01T07:52:57.206Z,22.33
2023-04-01T07:55:55.433Z,21.33
2023-04-01T07:58:46.883Z,20.13
2023-04-01T08:01:52.331Z,19.20
2023-04-01T08:04:46.031Z,22.73
2023-04-01T08:07:32.975Z,25.97
2023-04-01T08:10:33.789Z,17.97
2023-04-01T08:14:02.751Z,19.77
2023-04-01T08:17:09.000Z,21.33
2023-04-01T08:19:57.367Z,15.80
2023-04-01T08:22:58.142Z,15.33
2023-04-01T08:25:30.706Z,15.87
2023-04-01T08:28:38.815Z,14.93
2023-04-01T08:32:02.294Z,16.73
2023-04-01T08:35:10.508Z,17.40
2023-04-01T08:37:42.307Z,15.57
2023-04-01T08:40:27.414Z,16.63
2023-04-01T08:43:21.821Z,15.27
2023-04-01T08:46:41.072Z,19.57
2023-04-01T08:56:43.553Z,12.70
2023-04-01T08:59:35.711Z,13.00
2023-04-01T09:02:47.097Z,13.40
2023-04-01T09:05:51.238Z,13.27
2023-04-01T09:08:47.400Z,9.67
2023-04-01T09:11:34.977Z,11.10
2023-04-01T09:14:32.436Z,10.60
2023-04-01T09:17:52.896Z,12.27
2023-04-01T09:21:05.320Z,12.00
2023-04-01T09:24:13.997Z,9.50
2023-04-01T09:27:05.181Z,13.67
2023-04-01T09:30:28.992Z,14.53
2023-04-01T09:33:52.852Z,12.63
2023-04-01T09:36:41.631Z,11.70
2023-04-01T09:39:36.151Z,12.33
2023-04-01T09:43:03.791Z,15.13
2023-04-01T09:45:49.973Z,13.43
2023-04-01T09:48:51.392Z,14.57
2023-04-01T09:51:37.334Z,16.90
2023-04-01T09:54:36.198Z,15.77
2023-04-01T09:57:56.382Z,15.60
2023-04-01T10:00:26.400Z,14.93
2023-04-01T10:03:24.792Z,18.53
2023-04-01T10:06:32.121Z,12.53
2023-04-01T10:09:53.296Z,13.37
2023-04-01T10:12:41.387Z,11.37
2023-04-01T10:15:39.122Z,11.70
2023-04-01T10:18:36.185Z,13.03
2023-04-01T10:21:40.323Z,12.53
2023-04-01T10:25:02.732Z,11.97
2023-04-01T10:28:01.871Z,13.43
2023-04-01T10:31:24.263Z,11.00
2023-04-01T10:34:53.401Z,11.80
2023-04-01T10:37:59.810Z,13.03
2023-04-01T10:41:10.651Z,9.40
2023-04-01T10:44:07.473Z,13.37
2023-04-01T10:47:30.521Z,11.37
2023-04-01T10:51:02.618Z,11.23
2023-04-01T10:54:29.002Z,10.63
2023-04-01T10:57:31.233Z,9.17
2023-04-01T11:00:52.429Z,10.80
2023-04-01T11:03:56.519Z,10.77
2023-04-01T11:07:13.877Z,10.40
2023-04-01T11:10:18.071Z,10.67
2023-04-01T11:13:47.312Z,9.10
2023-04-01T11:17:18.011Z,8.30
2023-04-01T11:20:46.390Z,9.77
2023-04-01T11:23:44.018Z,11.27
2023-04-01T11:26:30.516Z,11.00
2023-04-01T11:29:40.541Z,10.93
2023-04-01T11:32:56.933Z,9.50
2023-04-01T11:36:15.967Z,10.80
2023-04-01T11:39:21.607Z,9.67
2023-04-01T11:42:36.882Z,10.40
2023-04-01T11:45:49.339Z,9.60
2023-04-01T11:48:46.449Z,11.37
2023-04-01T11:52:14.889Z,8.67
2023-04-01T11:55:29.498Z,11.90
2023-04-01T11:59:02.722Z,12.50
2023-04-01T12:01:56.813Z,12.77
2023-04-01T12:04:55.406Z,10.47
2023-04-01T12:08:27.591Z,10.23
2023-04-01T12:11:09.182Z,11.70
2023-04-01T12:14:24.694Z,13.20
2023-04-01T12:17:20.472Z,11.90
2023-04-01T12:20:12.914Z,11.30
2023-04-01T12:23:36.167Z,13.67
2023-04-01T12:26:28.780Z,13.20
2023-04-01T12:29:44.764Z,15.13
2023-04-01T12:33:04.153Z,13.23
2023-04-01T12:36:31.340Z,13.43
2023-04-01T12:39:40.661Z,15.07
2023-04-01T12:43:03.591Z,14.33
2023-04-01T12:45:32.864Z,12.77
2023-04-01T12:48:42.844Z,12.60
2023-04-01T12:51:46.495Z,14.87
2023-04-01T12:54:42.194Z,13.03
2023-04-01T12:57:58.623Z,14.07
2023-04-01T13:00:32.392Z,9.80
2023-04-01T13:03:35.262Z,12.43
2023-04-01T13:06:52.942Z,12.50
2023-04-01T13:09:48.041Z,14.23
2023-04-01T13:12:49.976Z,16.37
2023-04-01T13:15:51.758Z,10.93
2023-04-01T13:18:50.862Z,9.43
2023-04-01T13:21:36.484Z,8.73
2023-04-01T13:24:06.952Z,7.67
2023-04-01T13:27:09.463Z,7.93
2023-04-01T13:30:24.389Z,8.03
2023-04-01T13:33:41.473Z,7.13
2023-04-01T13:37:28.387Z,7.30
2023-04-01T13:41:01.698Z,7.20
2023-04-01T13:44:01.187Z,6.30
2023-04-01T13:46:40.034Z,7.33
2023-04-01T13:49:56.226Z,7.40
2023-04-01T13:52:57.427Z,5.13
2023-04-01T13:55:56.591Z,6.03
2023-04-01T13:59:27.658Z,4.90
2023-04-01T14:03:02.007Z,4.73
2023-04-01T14:06:43.455Z,7.77
2023-04-01T14:09:37.413Z,5.80
2023-04-01T14:12:47.649Z,6.37
2023-04-01T14:15:26.862Z,4.90
2023-04-01T14:19:00.649Z,6.03
2023-04-01T14:21:57.781Z,4.40
2023-04-01T14:24:58.863Z,5.83
2023-04-01T14:28:15.982Z,4.87
2023-04-01T14:31:39.660Z,3.93
2023-04-01T14:47:40.945Z,3.30
2023-04-01T14:50:20.100Z,4.00
2023-04-01T14:53:08.838Z,4.80
2023-04-01T14:55:44.581Z,5.90
2023-04-01T14:58:19.370Z,5.50
2023-04-01T15:01:07.922Z,6.00
2023-04-01T15:04:27.561Z,7.33
2023-04-01T15:08:00.947Z,6.33
2023-04-01T15:10:54.599Z,6.80
2023-04-01T15:13:55.261Z,7.60
2023-04-01T15:16:52.685Z,7.97
2023-04-01T15:19:43.755Z,6.97
2023-04-01T15:22:53.865Z,7.90
2023-04-01T15:25:52.376Z,8.13
2023-04-01T15:29:06.034Z,8.33
2023-04-01T15:32:06.090Z,9.43
2023-04-01T15:34:59.707Z,7.50
2023-04-01T15:37:43.446Z,6.10
2023-04-01T15:40:46.844Z,6.43
2023-04-01T15:43:51.663Z,6.03
2023-04-01T15:46:49.683Z,5.53
2023-04-01T15:49:48.211Z,5.93
2023-04-01T15:52:48.979Z,4.80
2023-04-01T15:55:56.219Z,5.20
2023-04-01T15:58:59.386Z,4.50
2023-04-01T16:02:38.982Z,7.33
2023-04-01T16:05:52.746Z,7.90
2023-04-01T16:09:11.570Z,9.40
2023-04-01T16:11:51.442Z,6.67
2023-04-01T16:14:46.976Z,5.37
2023-04-01T16:17:54.797Z,5.40
2023-04-01T16:20:46.274Z,5.63
2023-04-01T16:23:38.359Z,4.27
2023-04-01T16:26:59.665Z,6.43
2023-04-01T16:29:54.951Z,5.67
2023-04-01T16:33:00.745Z,6.53
2023-04-01T16:35:49.610Z,11.63
2023-04-01T16:38:39.262Z,6.97
2023-04-01T16:41:36.705Z,5.70
2023-04-01T16:44:28.435Z,4.70
2023-04-01T16:47:10.578Z,7.83
2023-04-01T16:50:20.647Z,5.27
2023-04-01T16:53:18.181Z,6.50
2023-04-01T16:56:06.219Z,6.10
2023-04-01T16:58:55.359Z,4.57
2023-04-01T17:01:52.838Z,6.33
2023-04-01T17:04:53.268Z,6.70
2023-04-01T17:07:37.802Z,4.50
2023-04-01T17:10:51.876Z,8.77
2023-04-01T17:13:46.973Z,4.33
2023-04-01T17:16:45.919Z,9.60
2023-04-01T17:19:49.933Z,4.10
2023-04-01T17:22:54.077Z,6.37
2023-04-01T17:25:33.269Z,6.50
2023-04-01T17:28:41.210Z,4.47
2023-04-01T17:31:27.039Z,5.93
2023-04-01T17:34:15.617Z,4.93
2023-04-01T17:37:30.902Z,4.40
2023-04-01T17:40:36.404Z,6.40
2023-04-01T17:43:48.665Z,6.70
2023-04-01T17:46:48.049Z,6.80
2023-04-01T17:49:43.414Z,6.57
2023-04-01T17:53:13.239Z,8.43
2023-04-01T17:56:09.413Z,6.50
2023-04-01T17:59:16.222Z,5.53
2023-04-01T18:02:08.281Z,5.73
2023-04-01T18:05:17.236Z,8.27
2023-04-01T18:08:34.763Z,5.47
2023-04-01T18:11:55.700Z,6.63
2023-04-01T18:15:12.851Z,9.57
2023-04-01T18:18:04.844Z,6.93
2023-04-01T18:20:55.427Z,7.03
2023-04-01T18:24:02.328Z,8.53
2023-04-01T18:26:38.027Z,7.37
2023-04-01T18:29:18.884Z,7.67
2023-04-01T18:31:56.091Z,8.47
2023-04-01T18:35:30.205Z,6.63
2023-04-01T18:38:41.271Z,10.13
2023-04-01T18:42:03.459Z,10.53
2023-04-01T18:44:58.866Z,12.13
2023-04-01T18:48:06.915Z,10.67
2023-04-01T18:51:03.238Z,10.40
2023-04-01T18:53:54.742Z,10.17
2023-04-01T18:56:35.447Z,14.37
2023-04-01T18:59:30.274Z,10.47
2023-04-01T19:02:32.787Z,14.23
2023-04-01T19:05:17.582Z,14.33
2023-04-01T19:07:49.267Z,10.60
2023-04-01T19:10:55.340Z,11.73
2023-04-01T19:13:48.654Z,10.17
2023-04-01T19:17:03.810Z,13.27
2023-04-01T19:20:17.633Z,17.33
2023-04-01T19:23:08.809Z,12.47
2023-04-01T19:25:50.701Z,10.20
2023-04-01T19:28:50.443Z,12.63
2023-04-01T19:32:20.474Z,11.73
2023-04-01T19:35:33.517Z,12.83
2023-04-01T19:38:35.788Z,14.50
2023-04-01T19:41:49.349Z,13.60
2023-04-01T19:44:48.882Z,15.30
2023-04-01T19:48:09.081Z,15.13
2023-04-01T19:51:07.105Z,13.13
2023-04-01T19:54:39.408Z,15.37
2023-04-01T19:57:47.724Z,16.63
2023-04-01T20:00:54.153Z,10.57
2023-04-01T20:03:51.119Z,12.43
2023-04-01T20:06:58.078Z,12.17
2023-04-01T20:10:11.126Z,15.37
2023-04-01T20:13:27.087Z,16.67
2023-04-01T20:16:09.214Z,10.77
2023-04-01T20:19:03.002Z,13.23
2023-04-01T20:21:48.855Z,13.10
2023-04-01T20:24:15.929Z,12.00
2023-04-01T20:26:51.524Z,12.90
2023-04-01T20:30:11.104Z,10.63
2023-04-01T20:33:02.979Z,16.80
2023-04-01T20:36:17.152Z,13.40
2023-04-01T20:40:02.368Z,14.33
2023-04-01T20:43:49.907Z,15.03
2023-04-01T20:47:13.441Z,11.40
2023-04-01T20:50:28.239Z,12.27
2023-04-01T20:53:21.572Z,14.10
2023-04-01T20:55:51.627Z,10.40
2023-04-01T20:59:07.856Z,12.57
2023-04-01T21:02:06.598Z,13.37
2023-04-01T21:05:18.384Z,13.47
2023-04-01T21:08:34.874Z,12.50
2023-04-01T21:12:06.197Z,14.37
2023-04-01T21:15:05.899Z,10.20
2023-04-01T21:18:22.207Z,8.20
2023-04-01T21:21:10.501Z,7.40
2023-04-01T21:23:50.996Z,12.23
2023-04-01T21:27:03.029Z,10.33
2023-04-01T21:30:06.412Z,9.80
2023-04-01T21:33:04.518Z,9.83
2023-04-01T21:36:34.304Z,9.27
2023-04-01T21:39:54.233Z,10.30
2023-04-01T21:43:00.394Z,11.47
2023-04-01T21:46:40.731Z,8.77
2023-04-01T21:49:22.693Z,10.33
2023-04-01T21:53:08.225Z,8.27
2023-04-01T21:56:16.934Z,10.57
2023-04-01T21:59:44.300Z,7.17
2023-04-01T22:02:46.736Z,4.73
2023-04-01T22:05:37.706Z,5.43
2023-04-01T22:08:39.480Z,9.13
2023-04-01T22:11:37.751Z,5.13
2023-04-01T22:14:15.125Z,6.87
2023-04-01T22:17:31.473Z,9.10
2023-04-01T22:20:40.210Z,4.97
2023-04-01T22:23:28.384Z,5.03
2023-04-01T22:26:53.354Z,4.57
2023-04-01T22:29:54.026Z,5.60
2023-04-01T22:32:36.512Z,4.80
2023-04-01T22:35:38.238Z,6.77
2023-04-01T22:39:42.270Z,5.30
2023-04-01T22:42:46.863Z,3.27
2023-04-01T22:45:13.810Z,7.83
2023-04-01T22:48:06.608Z,7.50
2023-04-01T22:51:16.663Z,6.63
2023-04-01T22:54:13.973Z,6.67
2023-04-01T22:57:01.005Z,5.73
2023-04-01T22:59:45.902Z,4.90
2023-04-01T23:02:34.035Z,4.80
2023-04-01T23:05:09.779Z,4.70
2023-04-01T23:08:03.811Z,3.57
2023-04-01T23:10:58.700Z,6.77
2023-04-01T23:13:53.589Z,5.80
2023-04-01T23:16:41.007Z,6.10
2023-04-01T23:19:29.805Z,6.90
2023-04-01T23:22:47.082Z,6.43
2023-04-01T23:25:56.409Z,6.47
2023-04-01T23:28:49.229Z,10.30
2023-04-01T23:31:44.065Z,6.97
2023-04-01T23:34:14.031Z,7.23
2023-04-01T23:36:48.479Z,6.93
2023-04-01T23:39:44.764Z,7.80
2023-04-01T23:42:29.458Z,10.53
2023-04-01T23:45:21.502Z,5.23
2023-04-01T23:47:51.467Z,5.10
2023-04-01T23:50:26.448Z,8.13
2023-04-01T23:53:25.746Z,5.50
2023-04-01T23:55:57.128Z,5.73
2023-04-01T23:58:39.351Z,3.93
